createdAt,value
2018-08-28T00:02:17.292Z,14.24
2018-08-28T00:04:45.972Z,14.36
2018-08-28T00:07:15.094Z,14.38
2018-08-28T00:09:43.768Z,14.32
2018-08-28T00:12:12.459Z,14.47
2018-08-28T00:14:41.129Z,14.51
2018-08-28T00:17:09.890Z,14.43
2018-08-28T00:19:38.494Z,14.52
2018-08-28T00:22:07.188Z,14.47
2018-08-28T00:24:35.838Z,14.47
2018-08-28T00:27:04.460Z,14.39
2018-08-28T00:29:33.115Z,14.35
2018-08-28T00:32:01.952Z,14.44
2018-08-28T00:34:30.645Z,14.40
2018-08-28T00:36:59.303Z,14.37
2018-08-28T00:39:27.967Z,14.54
2018-08-28T00:41:56.622Z,14.48
2018-08-28T00:44:25.420Z,14.53
2018-08-28T00:46:54.083Z,14.50
2018-08-28T00:49:22.724Z,14.47
2018-08-28T00:51:51.418Z,14.42
2018-08-28T00:54:20.085Z,14.57
2018-08-28T00:56:48.720Z,14.50
2018-08-28T00:59:18.033Z,14.43
2018-08-28T01:01:46.628Z,14.29
2018-08-28T01:04:15.280Z,14.42
2018-08-28T01:06:43.935Z,14.44
2018-08-28T01:09:12.850Z,14.55
2018-08-28T01:11:41.523Z,14.41
2018-08-28T01:14:10.195Z,14.42
2018-08-28T01:16:38.865Z,14.43
2018-08-28T01:19:07.661Z,14.34
2018-08-28T01:21:36.274Z,14.48
2018-08-28T01:24:04.967Z,14.59
2018-08-28T01:26:33.675Z,14.50
2018-08-28T01:29:02.359Z,14.57
2018-08-28T01:31:31.044Z,14.56
2018-08-28T01:33:59.744Z,14.50
2018-08-28T01:36:28.423Z,14.60
2018-08-28T01:38:57.064Z,14.59
2018-08-28T01:41:25.788Z,14.59
2018-08-28T01:43:54.421Z,14.67
2018-08-28T01:46:23.039Z,14.62
2018-08-28T01:48:51.669Z,14.66
2018-08-28T01:51:20.599Z,14.68
2018-08-28T01:53:49.269Z,14.74
2018-08-28T01:56:17.919Z,14.66
2018-08-28T01:58:46.613Z,14.64
2018-08-28T02:01:15.257Z,14.65
2018-08-28T02:03:43.932Z,14.59
2018-08-28T02:06:12.735Z,14.55
2018-08-28T02:08:41.379Z,14.60
2018-08-28T02:11:10.012Z,14.51
2018-08-28T02:13:38.708Z,14.51
2018-08-28T02:16:07.349Z,14.62
2018-08-28T02:18:36.031Z,14.54
2018-08-28T02:21:04.675Z,14.54
2018-08-28T02:23:33.360Z,14.64
2018-08-28T02:26:02.009Z,14.66
2018-08-28T02:28:30.976Z,14.74
2018-08-28T02:30:59.622Z,14.67
2018-08-28T02:33:28.279Z,14.69
2018-08-28T02:35:56.894Z,14.81
2018-08-28T02:38:25.646Z,14.73
2018-08-28T02:40:54.323Z,14.68
2018-08-28T02:43:23.022Z,14.49
2018-08-28T02:45:51.699Z,14.63
2018-08-28T02:48:20.352Z,14.57
2018-08-28T02:50:49.371Z,14.71
2018-08-28T02:53:18.042Z,14.71
2018-08-28T02:55:46.929Z,14.72
2018-08-28T02:58:15.590Z,14.58
2018-08-28T03:00:44.209Z,14.54
2018-08-28T03:03:12.884Z,14.66
2018-08-28T03:05:41.532Z,14.62
2018-08-28T03:08:10.247Z,14.59
2018-08-28T03:10:38.985Z,14.62
2018-08-28T03:13:07.686Z,14.59
2018-08-28T03:15:36.442Z,14.59
2018-08-28T03:18:05.164Z,14.57
2018-08-28T03:20:34.388Z,14.71
2018-08-28T03:23:03.079Z,14.68
2018-08-28T03:25:31.766Z,14.60
2018-08-28T03:28:00.394Z,14.63
2018-08-28T03:30:29.056Z,14.72
2018-08-28T03:32:57.675Z,14.70
2018-08-28T03:35:26.343Z,14.78
2018-08-28T03:37:54.997Z,14.72
2018-08-28T03:40:23.683Z,14.70
2018-08-28T03:42:52.346Z,14.68
2018-08-28T03:45:21.082Z,14.66
2018-08-28T03:47:49.819Z,14.56
2018-08-28T03:50:18.486Z,14.43
2018-08-28T03:52:47.139Z,14.39
2018-08-28T03:55:15.812Z,14.42
2018-08-28T03:57:44.702Z,14.39
2018-08-28T04:00:13.409Z,14.37
2018-08-28T04:02:42.113Z,14.36
2018-08-28T04:05:10.964Z,14.28
2018-08-28T04:07:39.627Z,14.25
2018-08-28T04:10:08.364Z,14.15
2018-08-28T04:12:37.129Z,14.21
2018-08-28T04:15:06.091Z,14.10
2018-08-28T04:17:45.480Z,14.21
2018-08-28T04:20:14.146Z,14.22
2018-08-28T04:22:42.820Z,14.12
2018-08-28T04:25:11.489Z,14.17
2018-08-28T04:27:40.636Z,14.09
2018-08-28T04:30:09.915Z,14.23
2018-08-28T04:32:38.570Z,14.18
2018-08-28T04:35:07.227Z,14.22
2018-08-28T04:37:35.858Z,14.05
2018-08-28T04:40:05.234Z,14.12
2018-08-28T04:42:33.936Z,14.07
2018-08-28T04:45:02.880Z,14.05
2018-08-28T04:47:31.663Z,14.13
2018-08-28T04:50:00.261Z,14.11
2018-08-28T04:52:29.041Z,14.21
2018-08-28T04:54:57.768Z,14.17
2018-08-28T04:57:26.420Z,14.00
2018-08-28T04:59:55.084Z,14.19
2018-08-28T05:02:26.868Z,14.21
2018-08-28T05:04:55.537Z,14.09
2018-08-28T05:07:24.245Z,14.28
2018-08-28T05:09:52.964Z,14.30
2018-08-28T05:12:21.718Z,14.34
2018-08-28T05:14:50.436Z,14.20
2018-08-28T05:17:19.128Z,14.24
2018-08-28T05:19:47.828Z,14.26
2018-08-28T05:22:16.698Z,14.22
2018-08-28T05:24:45.527Z,14.23
2018-08-28T05:27:14.556Z,14.36
2018-08-28T05:29:43.373Z,14.33
2018-08-28T05:32:11.880Z,14.36
2018-08-28T05:34:41.895Z,14.30
2018-08-28T05:37:11.690Z,14.48
2018-08-28T05:39:40.503Z,14.33
2018-08-28T05:42:10.093Z,14.35
2018-08-28T05:44:38.910Z,14.57
2018-08-28T05:47:07.565Z,14.63
2018-08-28T05:49:36.331Z,14.80
2018-08-28T05:52:05.007Z,15.00
2018-08-28T05:54:33.635Z,14.87
2018-08-28T05:57:02.332Z,14.73
2018-08-28T05:59:31.129Z,14.79
2018-08-28T06:01:59.827Z,14.84
2018-08-28T06:04:28.587Z,14.88
2018-08-28T06:06:57.306Z,14.85
2018-08-28T06:09:25.951Z,14.92
2018-08-28T06:11:54.672Z,14.98
2018-08-28T06:14:23.902Z,15.16
2018-08-28T06:16:52.569Z,15.27
2018-08-28T06:19:21.227Z,15.21
2018-08-28T06:21:49.944Z,15.52
2018-08-28T06:24:18.680Z,15.68
2018-08-28T06:26:47.421Z,15.88
2018-08-28T06:29:16.107Z,15.67
2018-08-28T06:31:44.731Z,16.05
2018-08-28T06:34:13.404Z,16.17
2018-08-28T06:36:42.060Z,16.26
2018-08-28T06:39:11.043Z,16.47
2018-08-28T06:41:40.116Z,16.65
2018-08-28T06:44:08.808Z,16.76
2018-08-28T06:46:37.443Z,17.10
2018-08-28T06:49:06.105Z,17.35
2018-08-28T06:51:35.379Z,17.46
2018-08-28T06:54:04.694Z,17.48
2018-08-28T06:56:33.335Z,17.45
2018-08-28T06:59:02.032Z,17.51
2018-08-28T07:01:30.692Z,17.55
2018-08-28T07:03:59.449Z,18.10
2018-08-28T07:06:28.108Z,18.12
2018-08-28T07:08:56.808Z,18.00
2018-08-28T07:11:25.472Z,17.93
2018-08-28T07:13:54.166Z,18.07
2018-08-28T07:16:22.849Z,18.24
2018-08-28T07:18:51.758Z,18.36
2018-08-28T07:21:20.233Z,18.22
2018-08-28T07:23:48.938Z,18.22
2018-08-28T07:26:17.684Z,18.37
2018-08-28T07:28:46.526Z,18.71
2018-08-28T07:31:15.201Z,18.95
2018-08-28T07:33:43.917Z,18.96
2018-08-28T07:36:12.634Z,19.22
2018-08-28T07:38:41.328Z,19.18
2018-08-28T07:41:10.032Z,19.42
2018-08-28T07:43:38.752Z,19.48
2018-08-28T07:46:07.438Z,19.50
2018-08-28T07:48:36.092Z,19.68
2018-08-28T07:51:04.798Z,19.45
2018-08-28T07:53:33.523Z,19.85
2018-08-28T07:56:02.180Z,20.11
2018-08-28T07:58:30.853Z,20.00
2018-08-28T08:00:59.520Z,20.16
2018-08-28T08:03:28.249Z,20.20
2018-08-28T08:05:56.935Z,20.48
2018-08-28T08:08:25.622Z,20.77
2018-08-28T08:10:54.512Z,21.04
2018-08-28T08:13:23.449Z,21.05
2018-08-28T08:15:52.119Z,21.16
2018-08-28T08:18:22.028Z,21.42
2018-08-28T08:20:50.759Z,21.30
2018-08-28T08:23:19.462Z,21.28
2018-08-28T08:25:48.444Z,21.34
2018-08-28T08:28:17.548Z,21.55
2018-08-28T08:30:46.131Z,21.65
2018-08-28T08:33:14.877Z,21.89
2018-08-28T08:35:43.744Z,22.31
2018-08-28T08:38:14.196Z,22.58
2018-08-28T08:40:43.070Z,22.29
2018-08-28T08:43:11.716Z,22.31
2018-08-28T08:45:40.429Z,23.00
2018-08-28T08:48:09.132Z,23.29
2018-08-28T08:50:37.844Z,23.43
2018-08-28T08:53:06.481Z,22.87
2018-08-28T08:55:35.175Z,22.41
2018-08-28T08:58:03.844Z,22.76
2018-08-28T09:00:32.509Z,22.73
2018-08-28T09:03:01.161Z,23.21
2018-08-28T09:05:29.842Z,23.22
2018-08-28T09:07:58.511Z,23.35
2018-08-28T09:10:27.173Z,23.73
2018-08-28T09:12:55.831Z,23.45
2018-08-28T09:15:24.521Z,23.59
2018-08-28T09:17:53.223Z,23.31
2018-08-28T09:20:21.873Z,23.05
2018-08-28T09:22:50.595Z,23.02
2018-08-28T09:25:19.239Z,22.62
2018-08-28T09:27:47.895Z,22.10
2018-08-28T09:30:16.720Z,22.54
2018-08-28T09:32:45.384Z,23.13
2018-08-28T09:35:14.033Z,23.42
2018-08-28T09:37:42.708Z,23.94
2018-08-28T09:40:11.356Z,24.23
2018-08-28T09:42:40.090Z,25.07
2018-08-28T09:45:08.812Z,24.66
2018-08-28T09:47:37.500Z,24.63
2018-08-28T09:50:06.374Z,24.64
2018-08-28T09:52:35.818Z,24.17
2018-08-28T09:55:04.484Z,24.48
2018-08-28T09:57:33.220Z,24.73
2018-08-28T10:00:01.888Z,25.08
2018-08-28T10:02:30.551Z,25.04
2018-08-28T10:04:59.252Z,24.51
2018-08-28T10:07:27.996Z,24.61
2018-08-28T10:09:56.661Z,24.73
2018-08-28T10:12:25.396Z,24.13
2018-08-28T10:14:54.276Z,24.12
2018-08-28T10:17:23.094Z,24.60
2018-08-28T10:19:51.733Z,24.54
2018-08-28T10:22:20.725Z,24.57
2018-08-28T10:24:49.489Z,24.32
2018-08-28T10:27:18.318Z,24.92
2018-08-28T10:29:47.097Z,25.40
2018-08-28T10:32:15.809Z,25.58
2018-08-28T10:34:44.525Z,25.38
2018-08-28T10:37:13.192Z,25.89
2018-08-28T10:39:42.339Z,26.01
2018-08-28T10:42:10.987Z,26.42
2018-08-28T10:44:39.637Z,26.61
2018-08-28T10:47:08.320Z,27.08
2018-08-28T10:49:37.028Z,26.90
2018-08-28T10:52:05.764Z,27.11
2018-08-28T10:54:34.440Z,27.31
2018-08-28T10:57:03.256Z,27.32
2018-08-28T10:59:32.033Z,27.40
2018-08-28T11:02:00.751Z,26.52
2018-08-28T11:04:29.651Z,25.53
2018-08-28T11:06:58.437Z,25.15
2018-08-28T11:09:27.144Z,25.10
2018-08-28T11:11:55.872Z,25.80
2018-08-28T11:14:24.540Z,25.29
2018-08-28T11:16:53.220Z,25.00
2018-08-28T11:19:21.976Z,25.66
2018-08-28T11:21:50.644Z,25.39
2018-08-28T11:24:19.306Z,25.22
2018-08-28T11:26:48.184Z,25.00
2018-08-28T11:29:16.925Z,24.92
2018-08-28T11:31:45.628Z,24.69
2018-08-28T11:34:14.331Z,24.85
2018-08-28T11:36:42.963Z,25.06
2018-08-28T11:39:11.722Z,24.90
2018-08-28T11:41:40.372Z,25.39
2018-08-28T11:44:09.036Z,25.69
2018-08-28T11:46:37.694Z,26.79
2018-08-28T11:49:06.368Z,26.72
2018-08-28T11:51:35.011Z,26.46
2018-08-28T11:54:03.671Z,25.95
2018-08-28T11:56:32.324Z,25.79
2018-08-28T11:59:01.019Z,25.39
2018-08-28T12:01:29.729Z,25.37
2018-08-28T12:03:58.411Z,25.23
2018-08-28T12:06:27.072Z,24.95
2018-08-28T12:08:55.742Z,24.91
2018-08-28T12:11:24.386Z,24.39
2018-08-28T12:13:53.168Z,24.57
2018-08-28T12:16:21.783Z,24.69
2018-08-28T12:18:50.495Z,23.89
2018-08-28T12:21:19.120Z,23.74
2018-08-28T12:23:47.780Z,23.54
2018-08-28T12:26:16.424Z,23.46
2018-08-28T12:28:45.119Z,23.32
2018-08-28T12:31:13.791Z,23.26
2018-08-28T12:33:42.399Z,23.14
2018-08-28T12:36:11.040Z,22.87
2018-08-28T12:38:39.685Z,22.71
2018-08-28T12:41:08.357Z,22.71
2018-08-28T12:43:37.112Z,22.53
2018-08-28T12:46:06.145Z,22.16
2018-08-28T12:48:34.792Z,22.17
2018-08-28T12:51:03.501Z,22.22
2018-08-28T12:53:32.182Z,22.36
2018-08-28T12:56:00.859Z,22.07
2018-08-28T12:58:29.512Z,21.96
2018-08-28T13:00:58.194Z,21.90
2018-08-28T13:03:26.825Z,21.77
2018-08-28T13:05:55.517Z,21.92
2018-08-28T13:08:24.240Z,21.92
2018-08-28T13:10:52.918Z,21.96
2018-08-28T13:13:21.575Z,21.85
2018-08-28T13:15:50.217Z,21.90
2018-08-28T13:18:18.867Z,21.90
2018-08-28T13:20:47.580Z,21.89
2018-08-28T13:23:16.252Z,21.79
2018-08-28T13:25:44.995Z,21.79
2018-08-28T13:28:13.565Z,21.82
2018-08-28T13:30:42.271Z,21.93
2018-08-28T13:33:11.223Z,21.78
2018-08-28T13:35:39.935Z,21.87
2018-08-28T13:38:08.550Z,21.76
2018-08-28T13:40:37.362Z,21.39
2018-08-28T13:43:06.203Z,21.24
2018-08-28T13:45:34.877Z,21.49
2018-08-28T13:48:03.597Z,21.53
2018-08-28T13:50:32.263Z,21.51
2018-08-28T13:53:00.924Z,21.37
2018-08-28T13:55:29.944Z,21.47
2018-08-28T13:57:58.624Z,21.57
2018-08-28T14:00:27.295Z,21.62
2018-08-28T14:02:55.940Z,21.64
2018-08-28T14:05:24.643Z,21.93
2018-08-28T14:07:53.303Z,21.90
2018-08-28T14:10:22.002Z,21.74
2018-08-28T14:12:50.693Z,21.93
2018-08-28T14:15:19.369Z,21.95
2018-08-28T14:17:48.080Z,21.88
2018-08-28T14:20:16.804Z,21.97
2018-08-28T14:22:45.528Z,22.09
2018-08-28T14:25:14.154Z,21.96
2018-08-28T14:27:42.903Z,22.21
2018-08-28T14:30:11.550Z,22.18
2018-08-28T14:32:40.189Z,22.11
2018-08-28T14:35:08.804Z,22.20
2018-08-28T14:37:37.476Z,22.26
2018-08-28T14:40:06.166Z,22.33
2018-08-28T14:42:34.855Z,22.29
2018-08-28T14:45:03.486Z,22.25
2018-08-28T14:47:32.156Z,22.07
2018-08-28T14:50:01.033Z,22.09
2018-08-28T14:52:29.616Z,22.16
2018-08-28T14:54:58.220Z,22.19
2018-08-28T14:57:26.859Z,22.16
2018-08-28T14:59:55.579Z,22.06
2018-08-28T15:02:24.304Z,21.95
2018-08-28T15:04:52.975Z,21.97
2018-08-28T15:07:21.647Z,22.01
2018-08-28T15:09:50.317Z,21.87
2018-08-28T15:12:19.687Z,21.89
2018-08-28T15:14:48.366Z,21.84
2018-08-28T15:17:17.101Z,21.87
2018-08-28T15:19:46.976Z,22.02
2018-08-28T15:22:15.624Z,21.92
2018-08-28T15:24:44.314Z,21.87
2018-08-28T15:27:13.054Z,22.09
2018-08-28T15:29:41.650Z,22.23
2018-08-28T15:32:10.332Z,22.16
2018-08-28T15:34:39.029Z,22.08
2018-08-28T15:37:07.693Z,22.13
2018-08-28T15:39:36.719Z,22.22
2018-08-28T15:42:05.569Z,22.22
2018-08-28T15:44:34.248Z,22.17
2018-08-28T15:47:04.045Z,22.22
2018-08-28T15:49:32.727Z,22.25
2018-08-28T15:52:01.541Z,22.19
2018-08-28T15:54:30.358Z,22.16
2018-08-28T15:56:59.915Z,22.32
2018-08-28T15:59:28.613Z,22.33
2018-08-28T16:01:58.721Z,22.25
2018-08-28T16:04:28.551Z,22.31
2018-08-28T16:06:57.988Z,22.37
2018-08-28T16:09:26.707Z,22.39
2018-08-28T16:11:57.164Z,22.37
2018-08-28T16:14:26.072Z,22.13
2018-08-28T16:16:55.499Z,22.14
2018-08-28T16:19:24.214Z,22.18
2018-08-28T16:21:54.738Z,22.29
2018-08-28T16:24:23.667Z,22.14
2018-08-28T16:26:53.097Z,22.17
2018-08-28T16:29:22.125Z,22.28
2018-08-28T16:31:52.042Z,22.09
2018-08-28T16:34:21.044Z,22.03
2018-08-28T16:36:49.811Z,21.90
2018-08-28T16:39:25.182Z,21.97
2018-08-28T16:41:53.855Z,21.84
2018-08-28T16:44:22.585Z,21.91
2018-08-28T16:46:51.352Z,21.93
2018-08-28T16:49:19.999Z,21.97
2018-08-28T16:51:48.663Z,21.79
2018-08-28T16:54:18.548Z,21.70
2018-08-28T16:56:47.229Z,21.77
2018-08-28T16:59:15.996Z,21.73
2018-08-28T17:01:44.832Z,21.80
2018-08-28T17:04:13.624Z,21.81
2018-08-28T17:06:42.300Z,21.77
2018-08-28T17:09:11.164Z,21.77
2018-08-28T17:11:39.833Z,21.58
2018-08-28T17:14:08.515Z,21.53
2018-08-28T17:16:37.234Z,21.60
2018-08-28T17:19:06.014Z,21.61
2018-08-28T17:21:34.650Z,21.65
2018-08-28T17:24:03.344Z,21.60
2018-08-28T17:26:32.038Z,21.66
2018-08-28T17:29:00.696Z,21.40
2018-08-28T17:31:29.684Z,21.34
2018-08-28T17:33:58.468Z,21.32
2018-08-28T17:36:27.166Z,21.23
2018-08-28T17:38:55.935Z,21.30
2018-08-28T17:41:24.643Z,21.18
2018-08-28T17:43:53.358Z,21.14
2018-08-28T17:46:21.991Z,21.11
2018-08-28T17:48:50.685Z,21.16
2018-08-28T17:51:19.337Z,20.98
2018-08-28T17:53:48.024Z,20.94
2018-08-28T17:56:16.693Z,20.93
2018-08-28T17:58:45.363Z,21.00
2018-08-28T18:01:14.179Z,20.92
2018-08-28T18:03:42.934Z,20.99
2018-08-28T18:06:11.605Z,20.94
2018-08-28T18:08:40.335Z,20.65
2018-08-28T18:11:08.983Z,20.62
2018-08-28T18:13:37.653Z,20.65
2018-08-28T18:16:06.345Z,20.71
2018-08-28T18:18:35.067Z,20.62
2018-08-28T18:21:03.753Z,20.60
2018-08-28T18:23:33.014Z,20.60
2018-08-28T18:26:01.815Z,20.62
2018-08-28T18:28:31.341Z,20.68
2018-08-28T18:31:00.091Z,20.65
2018-08-28T18:33:28.761Z,20.80
2018-08-28T18:35:57.873Z,20.88
2018-08-28T18:38:26.693Z,20.79
2018-08-28T18:40:55.566Z,20.80
2018-08-28T18:43:24.177Z,20.66
2018-08-28T18:45:52.875Z,20.63
2018-08-28T18:48:22.856Z,20.66
2018-08-28T18:50:51.934Z,20.60
2018-08-28T18:53:21.539Z,20.51
2018-08-28T18:55:50.261Z,20.53
2018-08-28T18:58:19.876Z,20.50
2018-08-28T19:00:48.616Z,20.71
2018-08-28T19:03:17.510Z,20.63
2018-08-28T19:05:46.250Z,20.60
2018-08-28T19:08:15.266Z,20.57
2018-08-28T19:10:44.136Z,20.60
2018-08-28T19:13:12.859Z,20.50
2018-08-28T19:15:41.760Z,20.53
2018-08-28T19:18:10.443Z,20.48
2018-08-28T19:20:39.252Z,20.48
2018-08-28T19:23:07.934Z,20.54
2018-08-28T19:25:36.729Z,20.43
2018-08-28T19:28:05.462Z,20.36
2018-08-28T19:30:34.148Z,20.32
2018-08-28T19:33:02.913Z,20.30
2018-08-28T19:35:31.589Z,20.36
2018-08-28T19:38:00.256Z,20.39
2018-08-28T19:40:28.931Z,20.44
2018-08-28T19:42:57.639Z,20.54
2018-08-28T19:45:26.349Z,20.56
2018-08-28T19:47:55.156Z,20.42
2018-08-28T19:50:23.876Z,20.40
2018-08-28T19:52:52.560Z,20.24
2018-08-28T19:55:21.566Z,20.25
2018-08-28T19:57:50.539Z,20.44
2018-08-28T20:00:19.559Z,20.58
2018-08-28T20:02:48.374Z,20.78
2018-08-28T20:05:17.105Z,20.86
2018-08-28T20:07:45.799Z,20.81
2018-08-28T20:10:16.147Z,20.58
2018-08-28T20:12:46.221Z,20.47
2018-08-28T20:15:14.895Z,20.46
2018-08-28T20:17:43.717Z,20.47
2018-08-28T20:20:12.489Z,20.25
2018-08-28T20:22:41.308Z,20.24
2018-08-28T20:25:09.983Z,20.54
2018-08-28T20:27:38.608Z,20.45
2018-08-28T20:30:08.303Z,20.46
2018-08-28T20:32:36.900Z,20.41
2018-08-28T20:35:06.115Z,20.34
2018-08-28T20:37:35.231Z,20.26
2018-08-28T20:40:03.935Z,20.14
2018-08-28T20:42:32.696Z,20.13
2018-08-28T20:45:01.428Z,20.12
2018-08-28T20:47:30.097Z,19.87
2018-08-28T20:49:58.805Z,19.86
2018-08-28T20:52:27.503Z,19.80
2018-08-28T20:54:57.311Z,19.59
2018-08-28T20:57:27.040Z,19.43
2018-08-28T20:59:55.723Z,19.35
2018-08-28T21:02:24.533Z,19.35
2018-08-28T21:04:53.319Z,19.43
2018-08-28T21:07:22.302Z,19.47
2018-08-28T21:09:50.991Z,19.53
2018-08-28T21:12:19.862Z,19.47
2018-08-28T21:14:48.660Z,19.45
2018-08-28T21:17:17.320Z,19.41
2018-08-28T21:19:45.996Z,19.47
2018-08-28T21:22:14.650Z,19.44
2018-08-28T21:24:43.346Z,19.60
2018-08-28T21:27:12.701Z,19.57
2018-08-28T21:29:41.394Z,19.47
2018-08-28T21:32:10.275Z,19.46
2018-08-28T21:34:38.931Z,19.43
2018-08-28T21:37:07.595Z,19.29
2018-08-28T21:39:36.269Z,19.22
2018-08-28T21:42:05.341Z,19.10
2018-08-28T21:44:33.984Z,19.07
2018-08-28T21:47:02.687Z,18.95
2018-08-28T21:49:31.334Z,19.04
2018-08-28T21:52:00.060Z,18.98
2018-08-28T21:54:28.737Z,19.03
2018-08-28T21:56:57.413Z,18.99
2018-08-28T21:59:26.048Z,18.96
2018-08-28T22:01:54.681Z,18.94
2018-08-28T22:04:23.336Z,18.93
2018-08-28T22:06:57.363Z,18.89
2018-08-28T22:09:26.356Z,18.99
2018-08-28T22:11:55.011Z,18.99
2018-08-28T22:14:23.681Z,18.94
2018-08-28T22:16:52.411Z,18.89
2018-08-28T22:19:21.096Z,18.87
2018-08-28T22:21:49.822Z,18.68
2018-08-28T22:24:18.512Z,18.63
2018-08-28T22:26:47.180Z,18.62
2018-08-28T22:29:15.807Z,18.59
2018-08-28T22:31:44.564Z,18.59
2018-08-28T22:34:13.187Z,18.58
2018-08-28T22:36:41.836Z,18.53
2018-08-28T22:39:10.476Z,18.49
2018-08-28T22:41:39.624Z,18.66
2018-08-28T22:44:08.336Z,18.61
2018-08-28T22:46:37.023Z,18.64
2018-08-28T22:49:05.741Z,18.51
2018-08-28T22:51:34.467Z,18.49
2018-08-28T22:54:03.158Z,18.40
2018-08-28T22:56:31.852Z,18.54
2018-08-28T22:59:00.620Z,18.44
2018-08-28T23:01:29.313Z,18.48
2018-08-28T23:03:57.987Z,18.58
2018-08-28T23:06:26.643Z,18.53
2018-08-28T23:08:55.289Z,18.56
2018-08-28T23:11:24.478Z,18.44
2018-08-28T23:13:53.190Z,18.35
2018-08-28T23:16:22.324Z,18.36
2018-08-28T23:18:50.988Z,18.39
2018-08-28T23:21:19.665Z,18.50
2018-08-28T23:23:49.179Z,18.29
2018-08-28T23:26:17.828Z,18.29
2018-08-28T23:28:46.456Z,18.29
2018-08-28T23:31:15.208Z,18.24
2018-08-28T23:33:43.886Z,18.33
2018-08-28T23:36:12.652Z,18.50
2018-08-28T23:38:41.293Z,18.43
2018-08-28T23:41:09.965Z,18.24
2018-08-28T23:43:38.683Z,18.19
2018-08-28T23:46:07.368Z,18.02
2018-08-28T23:48:36.054Z,17.92
2018-08-28T23:51:04.757Z,17.89
2018-08-28T23:53:33.525Z,17.88
2018-08-28T23:56:02.207Z,17.77
2018-08-28T23:58:30.881Z,17.77
